createdAt,value
2023-02-15T00:01:24.492Z,99896.81
2023-02-15T00:03:51.743Z,99883.47
2023-02-15T00:06:18.693Z,99885.47
2023-02-15T00:08:45.216Z,99879.69
2023-02-15T00:11:16.579Z,99879.06
2023-02-15T00:13:43.560Z,99882.50
2023-02-15T00:16:12.594Z,99881.72
2023-02-15T00:18:41.001Z,99877.38
2023-02-15T00:21:10.284Z,99875.41
2023-02-15T00:23:37.562Z,99868.13
2023-02-15T00:26:12.126Z,99867.84
2023-02-15T00:28:39.369Z,99863.72
2023-02-15T00:31:11.286Z,99870.06
2023-02-15T00:33:39.703Z,99871.00
2023-02-15T00:36:09.454Z,99872.66
2023-02-15T00:38:36.127Z,99865.00
2023-02-15T00:41:04.934Z,99869.88
2023-02-15T00:43:33.443Z,99858.44
2023-02-15T00:46:01.947Z,99862.56
2023-02-15T00:48:28.684Z,99857.81
2023-02-15T00:50:59.665Z,99854.25
2023-02-15T00:53:27.567Z,99852.22
2023-02-15T00:55:54.316Z,99854.88
2023-02-15T00:58:20.789Z,99862.41
2023-02-15T01:00:48.669Z,99858.31
2023-02-15T01:03:16.722Z,99865.72
2023-02-15T01:05:43.323Z,99864.38
2023-02-15T01:08:10.167Z,99855.91
2023-02-15T01:10:37.165Z,99864.22
2023-02-15T01:13:03.697Z,99852.47
2023-02-15T01:15:30.247Z,99860.75
2023-02-15T01:17:56.801Z,99873.06
2023-02-15T01:20:26.312Z,99872.38
2023-02-15T01:22:53.741Z,99868.84
2023-02-15T01:25:22.781Z,99872.38
2023-02-15T01:27:49.457Z,99870.47
2023-02-15T01:30:16.766Z,99879.09
2023-02-15T01:32:43.868Z,99873.06
2023-02-15T01:35:11.410Z,99871.44
2023-02-15T01:37:38.173Z,99871.94
2023-02-15T01:40:07.530Z,99866.69
2023-02-15T01:42:34.080Z,99871.56
2023-02-15T01:45:22.614Z,99870.34
2023-02-15T01:47:55.398Z,99861.59
2023-02-15T01:50:38.563Z,99862.59
2023-02-15T01:53:35.759Z,99861.50
2023-02-15T01:56:07.777Z,99859.56
2023-02-15T01:58:36.278Z,99855.84
2023-02-15T02:01:04.920Z,99858.50
2023-02-15T02:03:59.860Z,99859.38
2023-02-15T02:06:27.724Z,99857.50
2023-02-15T02:08:56.254Z,99860.13
2023-02-15T02:11:23.429Z,99849.13
2023-02-15T02:13:52.253Z,99858.31
2023-02-15T02:16:26.464Z,99854.00
2023-02-15T02:19:10.955Z,99855.06
2023-02-15T02:22:01.857Z,99853.03
2023-02-15T02:25:13.192Z,99841.03
2023-02-15T02:27:45.517Z,99845.38
2023-02-15T02:30:30.638Z,99839.69
2023-02-15T02:33:09.576Z,99833.03
2023-02-15T02:36:03.274Z,99831.94
2023-02-15T02:38:45.151Z,99833.50
2023-02-15T02:41:22.706Z,99833.28
2023-02-15T02:44:13.955Z,99824.84
2023-02-15T02:47:12.810Z,99832.50
2023-02-15T02:49:41.531Z,99829.41
2023-02-15T02:52:47.198Z,99824.66
2023-02-15T02:55:57.093Z,99831.09
2023-02-15T02:58:46.633Z,99836.53
2023-02-15T03:01:25.159Z,99837.75
2023-02-15T03:03:57.802Z,99833.81
2023-02-15T03:06:34.349Z,99827.06
2023-02-15T03:09:42.570Z,99838.97
2023-02-15T03:12:15.228Z,99835.63
2023-02-15T03:14:44.793Z,99835.34
2023-02-15T03:17:13.571Z,99829.22
2023-02-15T03:19:41.305Z,99826.09
2023-02-15T03:22:16.034Z,99828.59
2023-02-15T03:24:47.802Z,99830.44
2023-02-15T03:27:23.309Z,99823.09
2023-02-15T03:29:53.215Z,99823.50
2023-02-15T03:32:20.605Z,99827.00
2023-02-15T03:34:47.540Z,99826.69
2023-02-15T03:37:41.840Z,99831.78
2023-02-15T03:40:31.754Z,99828.69
2023-02-15T03:43:10.163Z,99820.28
2023-02-15T03:45:55.423Z,99818.75
2023-02-15T03:48:34.407Z,99828.38
2023-02-15T03:51:24.761Z,99825.72
2023-02-15T03:53:52.105Z,99824.63
2023-02-15T03:56:18.604Z,99823.81
2023-02-15T03:59:03.766Z,99826.84
2023-02-15T04:01:57.902Z,99828.81
2023-02-15T04:04:27.337Z,99834.31
2023-02-15T04:06:53.842Z,99828.75
2023-02-15T04:09:39.029Z,99831.13
2023-02-15T04:12:05.634Z,99832.56
2023-02-15T04:14:50.662Z,99829.78
2023-02-15T04:17:17.188Z,99828.94
2023-02-15T04:20:02.189Z,99822.72
2023-02-15T04:22:47.685Z,99830.56
2023-02-15T04:25:14.274Z,99827.78
2023-02-15T04:27:47.040Z,99826.78
2023-02-15T04:30:15.396Z,99836.00
2023-02-15T04:32:42.614Z,99828.16
2023-02-15T04:35:10.208Z,99827.25
2023-02-15T04:37:36.722Z,99829.63
2023-02-15T04:40:04.983Z,99824.50
2023-02-15T04:42:31.598Z,99828.50
2023-02-15T04:44:58.130Z,99833.03
2023-02-15T04:47:24.759Z,99823.00
2023-02-15T04:49:51.251Z,99828.16
2023-02-15T04:52:20.814Z,99831.09
2023-02-15T04:54:47.488Z,99824.16
2023-02-15T04:57:14.059Z,99823.22
2023-02-15T04:59:40.592Z,99827.56
2023-02-15T05:02:07.330Z,99826.41
2023-02-15T05:04:33.784Z,99837.56
2023-02-15T05:07:00.315Z,99819.75
2023-02-15T05:09:26.868Z,99816.41
2023-02-15T05:11:53.451Z,99822.59
2023-02-15T05:14:20.084Z,99816.41
2023-02-15T05:16:46.640Z,99804.72
2023-02-15T05:19:13.149Z,99808.94
2023-02-15T05:21:39.640Z,99800.31
2023-02-15T05:24:26.363Z,99810.47
2023-02-15T05:27:11.471Z,99811.06
2023-02-15T05:29:37.951Z,99812.88
2023-02-15T05:32:05.361Z,99818.72
2023-02-15T05:34:32.035Z,99818.72
2023-02-15T05:36:58.589Z,99814.00
2023-02-15T05:39:25.131Z,99816.13
2023-02-15T05:41:51.630Z,99821.53
2023-02-15T05:44:18.169Z,99828.19
2023-02-15T05:46:44.603Z,99821.25
2023-02-15T05:49:11.104Z,99831.81
2023-02-15T05:51:37.612Z,99829.88
2023-02-15T05:54:04.159Z,99836.94
2023-02-15T05:56:30.588Z,99830.72
2023-02-15T05:58:57.090Z,99829.59
2023-02-15T06:01:24.020Z,99827.81
2023-02-15T06:03:50.964Z,99832.50
2023-02-15T06:06:17.469Z,99840.41
2023-02-15T06:08:44.209Z,99848.38
2023-02-15T06:11:10.739Z,99842.94
2023-02-15T06:13:38.977Z,99835.16
2023-02-15T06:16:06.930Z,99838.25
2023-02-15T06:18:33.614Z,99837.97
2023-02-15T06:21:00.129Z,99838.94
2023-02-15T06:23:26.669Z,99836.41
2023-02-15T06:25:53.177Z,99841.03
2023-02-15T06:28:19.612Z,99840.63
2023-02-15T06:30:46.158Z,99826.97
2023-02-15T06:33:12.700Z,99838.25
2023-02-15T06:35:39.174Z,99837.00
2023-02-15T06:38:05.673Z,99850.50
2023-02-15T06:40:32.151Z,99853.56
2023-02-15T06:42:58.619Z,99851.59
2023-02-15T06:45:25.084Z,99862.16
2023-02-15T06:47:51.552Z,99857.69
2023-02-15T06:50:18.040Z,99850.47
2023-02-15T06:52:44.518Z,99848.66
2023-02-15T06:55:11.006Z,99856.59
2023-02-15T06:57:37.580Z,99862.72
2023-02-15T07:00:05.866Z,99856.59
2023-02-15T07:02:34.189Z,99861.88
2023-02-15T07:05:00.796Z,99859.22
2023-02-15T07:07:27.336Z,99850.72
2023-02-15T07:09:53.784Z,99863.94
2023-02-15T07:12:38.821Z,99859.75
2023-02-15T07:15:07.674Z,99860.53
2023-02-15T07:17:36.285Z,99860.03
2023-02-15T07:20:08.941Z,99856.28
2023-02-15T07:22:37.209Z,99848.88
2023-02-15T07:25:05.344Z,99846.38
2023-02-15T07:27:32.957Z,99858.44
2023-02-15T07:30:00.495Z,99854.13
2023-02-15T07:32:30.871Z,99860.03
2023-02-15T07:34:58.065Z,99851.09
2023-02-15T07:37:24.805Z,99852.44
2023-02-15T07:39:51.353Z,99861.59
2023-02-15T07:42:18.833Z,99862.38
2023-02-15T07:44:45.335Z,99857.59
2023-02-15T07:47:12.998Z,99860.38
2023-02-15T07:49:39.503Z,99847.75
2023-02-15T07:52:06.014Z,99838.88
2023-02-15T07:54:32.512Z,99843.06
2023-02-15T07:56:59.005Z,99846.31
2023-02-15T07:59:25.696Z,99842.56
2023-02-15T08:01:53.922Z,99841.19
2023-02-15T08:04:20.447Z,99846.88
2023-02-15T08:06:46.977Z,99836.50
2023-02-15T08:09:13.529Z,99836.16
2023-02-15T08:11:43.686Z,99832.84
2023-02-15T08:14:21.624Z,99831.69
2023-02-15T08:16:50.629Z,99831.78
2023-02-15T08:19:24.184Z,99833.53
2023-02-15T08:22:00.547Z,99832.44
2023-02-15T08:24:32.153Z,99825.16
2023-02-15T08:26:59.463Z,99829.13
2023-02-15T08:29:28.966Z,99826.13
2023-02-15T08:31:59.982Z,99829.91
2023-02-15T08:34:26.806Z,99834.25
2023-02-15T08:36:53.330Z,99838.69
2023-02-15T08:39:19.904Z,99835.22
2023-02-15T08:41:48.232Z,99838.19
2023-02-15T08:44:17.321Z,99831.25
2023-02-15T08:46:45.798Z,99820.72
2023-02-15T08:49:16.258Z,99817.69
2023-02-15T08:51:43.073Z,99820.34
2023-02-15T08:54:13.024Z,99817.91
2023-02-15T08:56:41.542Z,99823.63
2023-02-15T08:59:13.186Z,99813.66
2023-02-15T09:01:40.370Z,99810.06
2023-02-15T09:04:11.452Z,99811.09
2023-02-15T09:06:39.665Z,99812.09
2023-02-15T09:09:06.885Z,99809.06
2023-02-15T09:11:39.274Z,99804.47
2023-02-15T09:14:10.001Z,99800.16
2023-02-15T09:16:38.728Z,99804.47
2023-02-15T09:19:06.689Z,99802.69
2023-02-15T09:21:36.281Z,99807.31
2023-02-15T09:24:08.982Z,99795.41
2023-02-15T09:26:39.047Z,99800.94
2023-02-15T09:29:05.634Z,99792.69
2023-02-15T09:31:35.039Z,99792.41
2023-02-15T09:34:02.700Z,99789.09
2023-02-15T09:36:32.456Z,99801.31
2023-02-15T09:39:09.798Z,99795.06
2023-02-15T09:42:01.277Z,99794.59
2023-02-15T09:44:49.294Z,99797.03
2023-02-15T09:47:23.721Z,99790.13
2023-02-15T09:50:09.392Z,99800.41
2023-02-15T09:52:54.488Z,99794.16
2023-02-15T09:56:15.066Z,99783.41
2023-02-15T09:58:41.700Z,99773.06
2023-02-15T10:01:25.799Z,99785.69
2023-02-15T10:04:20.374Z,99792.31
2023-02-15T10:07:02.741Z,99777.44
2023-02-15T10:10:07.600Z,99781.81
2023-02-15T10:12:48.217Z,99780.28
2023-02-15T10:15:52.977Z,99770.50
2023-02-15T10:18:40.946Z,99769.31
2023-02-15T10:21:41.294Z,99770.09
2023-02-15T10:24:22.237Z,99775.31
2023-02-15T10:26:49.669Z,99772.84
2023-02-15T10:29:37.515Z,99765.28
2023-02-15T10:32:16.532Z,99762.34
2023-02-15T10:34:53.711Z,99759.44
2023-02-15T10:37:47.667Z,99765.56
2023-02-15T10:40:17.011Z,99756.34
2023-02-15T10:42:59.266Z,99746.03
2023-02-15T10:46:01.588Z,99750.38
2023-02-15T10:48:52.254Z,99742.53
2023-02-15T10:51:32.917Z,99742.25
2023-02-15T10:54:07.054Z,99726.81
2023-02-15T10:56:33.492Z,99730.91
2023-02-15T10:59:11.860Z,99733.94
2023-02-15T11:02:00.045Z,99726.53
2023-02-15T11:04:51.377Z,99722.59
2023-02-15T11:07:29.567Z,99722.06
2023-02-15T11:10:06.476Z,99707.09
2023-02-15T11:12:34.365Z,99696.75
2023-02-15T11:15:29.298Z,99699.41
2023-02-15T11:18:14.562Z,99699.53
2023-02-15T11:20:58.994Z,99693.44
2023-02-15T11:23:28.164Z,99691.69
2023-02-15T11:25:57.803Z,99688.50
2023-02-15T11:28:32.360Z,99679.31
2023-02-15T11:31:02.272Z,99679.97
2023-02-15T11:33:35.129Z,99683.91
2023-02-15T11:36:10.494Z,99678.16
2023-02-15T11:38:37.563Z,99668.44
2023-02-15T11:41:12.251Z,99674.97
2023-02-15T11:43:49.054Z,99663.69
2023-02-15T11:46:15.918Z,99665.78
2023-02-15T11:48:43.473Z,99661.91
2023-02-15T11:51:15.061Z,99656.69
2023-02-15T11:53:41.657Z,99659.94
2023-02-15T11:56:15.573Z,99653.03
2023-02-15T11:58:52.141Z,99646.59
2023-02-15T12:01:45.660Z,99649.88
2023-02-15T12:04:20.821Z,99634.63
2023-02-15T12:07:02.898Z,99641.69
2023-02-15T12:09:55.187Z,99638.34
2023-02-15T12:12:30.994Z,99637.41
2023-02-15T12:15:03.798Z,99630.66
2023-02-15T12:17:49.233Z,99633.13
2023-02-15T12:20:15.677Z,99627.00
2023-02-15T12:22:53.252Z,99623.44
2023-02-15T12:25:28.637Z,99610.69
2023-02-15T12:27:55.921Z,99615.44
2023-02-15T12:30:37.809Z,99607.72
2023-02-15T12:33:18.094Z,99598.84
2023-02-15T12:35:45.170Z,99593.91
2023-02-15T12:38:11.598Z,99593.09
2023-02-15T12:40:39.439Z,99590.41
2023-02-15T12:43:11.887Z,99592.06
2023-02-15T12:45:39.327Z,99588.94
2023-02-15T12:48:19.459Z,99581.13
2023-02-15T12:51:06.353Z,99579.78
2023-02-15T12:53:36.267Z,99575.22
2023-02-15T12:56:05.949Z,99566.97
2023-02-15T12:58:38.233Z,99560.91
2023-02-15T13:01:18.630Z,99564.94
2023-02-15T13:04:07.204Z,99568.38
2023-02-15T13:06:36.555Z,99562.44
2023-02-15T13:09:16.267Z,99557.16
2023-02-15T13:11:45.093Z,99550.13
2023-02-15T13:14:23.039Z,99552.44
2023-02-15T13:16:53.599Z,99553.59
2023-02-15T13:19:22.814Z,99539.22
2023-02-15T13:21:52.576Z,99536.22
2023-02-15T13:24:24.848Z,99539.88
2023-02-15T13:26:55.961Z,99531.50
2023-02-15T13:29:29.178Z,99529.91
2023-02-15T13:31:58.538Z,99528.97
2023-02-15T13:34:31.253Z,99528.16
2023-02-15T13:37:06.771Z,99521.91
2023-02-15T13:39:41.774Z,99515.75
2023-02-15T13:42:26.285Z,99520.38
2023-02-15T13:45:18.187Z,99516.75
2023-02-15T13:47:44.615Z,99504.38
2023-02-15T13:50:17.016Z,99518.94
2023-02-15T13:52:56.686Z,99513.50
2023-02-15T13:55:51.035Z,99510.31
2023-02-15T13:58:20.255Z,99515.00
2023-02-15T14:00:53.008Z,99505.56
2023-02-15T14:03:57.261Z,99505.16
2023-02-15T14:06:59.891Z,99498.88
2023-02-15T14:10:07.731Z,99505.31
2023-02-15T14:12:54.885Z,99502.88
2023-02-15T14:15:39.215Z,99503.53
2023-02-15T14:18:20.771Z,99500.78
2023-02-15T14:20:57.944Z,99499.84
2023-02-15T14:23:31.850Z,99502.59
2023-02-15T14:26:18.138Z,99501.41
2023-02-15T14:29:11.812Z,99500.66
2023-02-15T14:31:43.718Z,99498.75
2023-02-15T14:34:49.667Z,99496.66
2023-02-15T14:37:23.434Z,99499.22
2023-02-15T14:40:17.789Z,99497.78
2023-02-15T14:42:57.133Z,99494.97
2023-02-15T14:45:32.630Z,99500.59
2023-02-15T14:48:12.575Z,99505.75
2023-02-15T14:50:45.862Z,99497.22
2023-02-15T14:53:30.825Z,99497.22
2023-02-15T14:56:08.983Z,99501.38
2023-02-15T14:58:36.334Z,99496.53
2023-02-15T15:01:11.410Z,99491.09
2023-02-15T15:03:49.732Z,99489.97
2023-02-15T15:06:30.014Z,99484.03
2023-02-15T15:09:02.244Z,99491.44
2023-02-15T15:11:41.130Z,99498.25
2023-02-15T15:14:10.084Z,99500.63
2023-02-15T15:16:36.707Z,99492.56
2023-02-15T15:19:05.367Z,99496.50
2023-02-15T15:21:49.854Z,99485.13
2023-02-15T15:24:38.328Z,99495.44
2023-02-15T15:27:39.025Z,99495.00
2023-02-15T15:30:25.779Z,99491.78
2023-02-15T15:33:00.000Z,99494.63
2023-02-15T15:36:04.269Z,99500.09
2023-02-15T15:38:45.834Z,99501.34
2023-02-15T15:41:20.981Z,99497.84
2023-02-15T15:44:08.775Z,99504.34
2023-02-15T15:46:53.648Z,99505.75
2023-02-15T15:49:22.354Z,99508.63
2023-02-15T15:51:49.932Z,99504.69
2023-02-15T15:54:19.679Z,99513.19
2023-02-15T15:56:52.032Z,99507.00
2023-02-15T15:59:32.182Z,99495.06
2023-02-15T16:02:12.361Z,99492.34
2023-02-15T16:04:38.882Z,99498.16
2023-02-15T16:07:18.495Z,99504.69
2023-02-15T16:10:01.882Z,99504.25
2023-02-15T16:12:31.665Z,99503.03
2023-02-15T16:14:59.300Z,99515.28
2023-02-15T16:17:28.970Z,99503.53
2023-02-15T16:20:32.673Z,99519.25
2023-02-15T16:23:20.714Z,99515.75
2023-02-15T16:26:33.822Z,99518.47
2023-02-15T16:29:00.418Z,99516.66
2023-02-15T16:31:26.942Z,99521.06
2023-02-15T16:33:56.086Z,99516.56
2023-02-15T16:36:27.854Z,99528.13
2023-02-15T16:38:57.393Z,99518.66
2023-02-15T16:41:29.489Z,99532.69
2023-02-15T16:44:00.241Z,99525.91
2023-02-15T16:46:34.134Z,99527.59
2023-02-15T16:49:05.418Z,99530.50
2023-02-15T16:51:35.130Z,99544.78
2023-02-15T16:54:07.205Z,99533.25
2023-02-15T16:56:34.885Z,99539.88
2023-02-15T16:59:02.348Z,99548.56
2023-02-15T17:01:32.077Z,99551.69
2023-02-15T17:04:21.098Z,99556.03
2023-02-15T17:07:18.349Z,99559.31
2023-02-15T17:09:56.461Z,99571.31
2023-02-15T17:12:56.241Z,99569.88
2023-02-15T17:15:34.085Z,99569.25
2023-02-15T17:18:08.236Z,99569.25
2023-02-15T17:20:37.474Z,99575.22
2023-02-15T17:23:04.893Z,99566.56
2023-02-15T17:25:40.509Z,99573.19
2023-02-15T17:28:18.362Z,99582.88
2023-02-15T17:30:47.302Z,99578.09
2023-02-15T17:33:37.829Z,99586.97
2023-02-15T17:36:10.726Z,99595.59
2023-02-15T17:38:39.697Z,99594.78
2023-02-15T17:41:07.567Z,99609.38
2023-02-15T17:43:34.995Z,99607.94
2023-02-15T17:46:03.024Z,99607.50
2023-02-15T17:48:37.124Z,99611.88
2023-02-15T17:51:06.363Z,99612.88
2023-02-15T17:53:33.494Z,99618.84
2023-02-15T17:56:00.021Z,99620.25
2023-02-15T17:58:27.156Z,99612.56
2023-02-15T18:01:16.905Z,99622.91
2023-02-15T18:04:04.203Z,99619.72
2023-02-15T18:06:49.253Z,99611.38
2023-02-15T18:09:37.573Z,99617.19
2023-02-15T18:12:15.628Z,99624.50
2023-02-15T18:14:42.136Z,99628.22
2023-02-15T18:17:13.860Z,99622.22
2023-02-15T18:19:42.014Z,99626.19
2023-02-15T18:22:13.444Z,99623.81
2023-02-15T18:24:39.962Z,99622.66
2023-02-15T18:27:06.630Z,99622.78
2023-02-15T18:29:33.201Z,99620.72
2023-02-15T18:32:01.514Z,99628.19
2023-02-15T18:34:40.595Z,99633.88
2023-02-15T18:37:14.196Z,99633.78
2023-02-15T18:39:46.890Z,99635.44
2023-02-15T18:42:23.517Z,99635.34
2023-02-15T18:44:54.362Z,99624.53
2023-02-15T18:47:20.853Z,99621.25
2023-02-15T18:49:48.095Z,99631.16
2023-02-15T18:52:21.812Z,99623.31
2023-02-15T18:54:53.173Z,99621.59
2023-02-15T18:57:20.141Z,99618.13
2023-02-15T18:59:46.686Z,99637.28
2023-02-15T19:02:15.051Z,99627.59
2023-02-15T19:04:42.125Z,99631.94
2023-02-15T19:07:22.396Z,99630.00
2023-02-15T19:09:52.976Z,99622.66
2023-02-15T19:12:20.131Z,99623.47
2023-02-15T19:14:46.942Z,99628.22
2023-02-15T19:17:18.480Z,99622.16
2023-02-15T19:19:46.132Z,99629.81
2023-02-15T19:22:16.972Z,99626.22
2023-02-15T19:24:45.884Z,99625.16
2023-02-15T19:27:31.948Z,99626.75
2023-02-15T19:30:07.713Z,99632.38
2023-02-15T19:32:34.203Z,99631.94
2023-02-15T19:35:00.645Z,99627.19
2023-02-15T19:37:37.090Z,99620.47
2023-02-15T19:40:05.693Z,99634.38
2023-02-15T19:42:34.999Z,99636.50
2023-02-15T19:45:01.555Z,99631.16
2023-02-15T19:47:28.454Z,99624.63
2023-02-15T19:50:00.327Z,99618.06
2023-02-15T19:52:27.549Z,99616.16
2023-02-15T19:54:55.357Z,99617.53
2023-02-15T19:57:22.483Z,99615.88
2023-02-15T19:59:49.132Z,99618.78
2023-02-15T20:02:18.968Z,99616.75
2023-02-15T20:04:46.260Z,99619.25
2023-02-15T20:07:25.261Z,99616.38
2023-02-15T20:09:52.074Z,99616.69
2023-02-15T20:12:27.266Z,99609.78
2023-02-15T20:14:54.098Z,99620.00
2023-02-15T20:17:20.771Z,99616.97
2023-02-15T20:19:47.357Z,99611.94
2023-02-15T20:22:25.719Z,99615.97
2023-02-15T20:24:55.622Z,99609.69
2023-02-15T20:27:22.358Z,99605.09
2023-02-15T20:29:50.528Z,99604.16
2023-02-15T20:32:17.237Z,99600.56
2023-02-15T20:34:43.823Z,99609.97
2023-02-15T20:37:23.785Z,99610.69
2023-02-15T20:39:51.030Z,99623.19
2023-02-15T20:42:18.603Z,99624.50
2023-02-15T20:44:45.078Z,99626.88
2023-02-15T20:47:11.518Z,99632.50
2023-02-15T20:49:38.694Z,99627.16
2023-02-15T20:52:20.715Z,99617.41
2023-02-15T20:54:47.366Z,99621.91
2023-02-15T20:57:14.230Z,99617.47
2023-02-15T20:59:41.306Z,99614.28
2023-02-15T21:02:23.965Z,99615.00
2023-02-15T21:04:50.566Z,99622.91
2023-02-15T21:07:19.564Z,99619.69
2023-02-15T21:09:47.080Z,99615.25
2023-02-15T21:12:18.500Z,99620.47
2023-02-15T21:14:45.741Z,99622.41
2023-02-15T21:17:17.240Z,99628.91
2023-02-15T21:19:44.323Z,99629.03
2023-02-15T21:22:13.471Z,99633.63
2023-02-15T21:24:47.368Z,99638.13
2023-02-15T21:27:14.309Z,99638.25
2023-02-15T21:29:40.820Z,99642.28
2023-02-15T21:32:08.626Z,99638.50
2023-02-15T21:34:35.526Z,99633.78
2023-02-15T21:37:02.078Z,99634.59
2023-02-15T21:39:30.239Z,99642.66
2023-02-15T21:42:14.944Z,99638.34
2023-02-15T21:44:59.733Z,99642.19
2023-02-15T21:47:49.644Z,99638.34
2023-02-15T21:50:40.965Z,99643.03
2023-02-15T21:53:18.623Z,99644.75
2023-02-15T21:55:45.095Z,99649.78
2023-02-15T21:58:21.146Z,99648.00
2023-02-15T22:00:49.096Z,99642.53
2023-02-15T22:03:16.252Z,99645.56
2023-02-15T22:05:42.769Z,99644.56
2023-02-15T22:08:13.308Z,99660.69
2023-02-15T22:10:40.953Z,99659.78
2023-02-15T22:13:28.362Z,99658.00
2023-02-15T22:15:56.044Z,99663.81
2023-02-15T22:18:25.900Z,99672.72
2023-02-15T22:20:53.193Z,99683.06
2023-02-15T22:23:19.771Z,99686.66
2023-02-15T22:25:59.040Z,99676.28
2023-02-15T22:28:34.919Z,99685.81
2023-02-15T22:31:03.101Z,99676.28
2023-02-15T22:33:32.654Z,99675.28
2023-02-15T22:36:00.209Z,99676.53
2023-02-15T22:38:26.974Z,99677.47
2023-02-15T22:40:56.441Z,99682.44
2023-02-15T22:43:35.097Z,99689.22
2023-02-15T22:46:05.384Z,99688.22
2023-02-15T22:48:31.982Z,99686.59
2023-02-15T22:50:58.626Z,99679.94
2023-02-15T22:53:25.321Z,99684.03
2023-02-15T22:55:53.428Z,99682.59
2023-02-15T22:58:24.687Z,99679.84
2023-02-15T23:00:51.418Z,99672.69
2023-02-15T23:03:23.335Z,99684.66
2023-02-15T23:05:50.293Z,99685.19
2023-02-15T23:08:17.335Z,99685.88
2023-02-15T23:10:55.358Z,99687.31
2023-02-15T23:13:33.000Z,99684.03
2023-02-15T23:16:01.808Z,99688.38
2023-02-15T23:18:32.752Z,99686.09
2023-02-15T23:21:02.255Z,99688.09
2023-02-15T23:23:34.168Z,99693.00
2023-02-15T23:26:04.133Z,99695.03
2023-02-15T23:28:35.544Z,99708.00
2023-02-15T23:31:02.716Z,99701.72
2023-02-15T23:33:33.793Z,99708.34
2023-02-15T23:36:00.318Z,99704.38
2023-02-15T23:38:29.847Z,99701.22
2023-02-15T23:41:21.174Z,99705.72
2023-02-15T23:43:56.843Z,99707.75
2023-02-15T23:46:45.349Z,99711.56
2023-02-15T23:49:17.194Z,99719.91
2023-02-15T23:51:47.288Z,99711.09
2023-02-15T23:54:15.045Z,99711.47
2023-02-15T23:56:44.205Z,99710.75
2023-02-15T23:59:19.441Z,99713.44
